Terminal Aerodrome Forecast
Issued by NWS Knoxville/Tri Cities, TN

Home | Current Version | Previous Version | Text Only | Print | Product List | Glossary On
Versions: 1 2 3 4 5 6 7 8 9 10 11 12 13 14 15 16 17 18 19 20 21 22 23 24 25 26 27 28 29 30 31 32 33
000
FTUS44 KMRX 040534
TAFTYS
TAF
KTYS 040534Z 0406/0506 23006KT 5SM BR SCT005 OVC025 WS020/21050KT
      TEMPO 0406/0409 1SM -DZ BR BKN002 OVC015
     FM041200 23011G18KT P6SM SCT015 BKN035
     FM041700 23014G25KT P6SM SCT035 BKN070
     FM042100 25012KT 4SM -SHRA BR OVC035
     FM050300 36010KT 3SM SHRA BR OVC020=

USA.gov is the U.S. government's official web portal to all federal, state and local government web resources and services.